sensor_id;sensor_type;location;lat;lon;timestamp;temperature;humidity
254;DHT22;590;48.772;8.846;2022-12-11T00:00:53;-1.00;99.90
254;DHT22;590;48.772;8.846;2022-12-11T00:03:21;-1.10;99.90
254;DHT22;590;48.772;8.846;2022-12-11T00:05:50;-1.00;99.90
254;DHT22;590;48.772;8.846;2022-12-11T00:08:18;-1.10;99.90
254;DHT22;590;48.772;8.846;2022-12-11T00:10:47;-1.10;99.90
254;DHT22;590;48.772;8.846;2022-12-11T00:13:16;-1.20;99.90
254;DHT22;590;48.772;8.846;2022-12-11T00:15:44;-1.20;99.90
254;DHT22;590;48.772;8.846;2022-12-11T00:18:12;-1.20;99.90
254;DHT22;590;48.772;8.846;2022-12-11T00:20:41;-1.10;99.90
254;DHT22;590;48.772;8.846;2022-12-11T00:23:11;-1.10;99.90
254;DHT22;590;48.772;8.846;2022-12-11T00:25:40;-1.10;99.90
254;DHT22;590;48.772;8.846;2022-12-11T00:28:09;-1.10;99.90
254;DHT22;590;48.772;8.846;2022-12-11T00:30:38;-1.10;99.90
254;DHT22;590;48.772;8.846;2022-12-11T00:33:07;-1.10;99.90
254;DHT22;590;48.772;8.846;2022-12-11T00:35:37;-1.10;99.90
254;DHT22;590;48.772;8.846;2022-12-11T00:38:05;-1.10;99.90
254;DHT22;590;48.772;8.846;2022-12-11T00:40:35;-1.10;99.90
254;DHT22;590;48.772;8.846;2022-12-11T00:43:03;-1.10;99.90
254;DHT22;590;48.772;8.846;2022-12-11T00:45:37;-1.10;99.90
254;DHT22;590;48.772;8.846;2022-12-11T00:48:06;-1.10;99.90
254;DHT22;590;48.772;8.846;2022-12-11T00:50:35;-1.10;99.90
254;DHT22;590;48.772;8.846;2022-12-11T00:53:04;-1.10;99.90
254;DHT22;590;48.772;8.846;2022-12-11T00:55:37;-1.20;99.90
254;DHT22;590;48.772;8.846;2022-12-11T00:58:06;-1.20;99.90
254;DHT22;590;48.772;8.846;2022-12-11T01:00:35;-1.30;99.90
254;DHT22;590;48.772;8.846;2022-12-11T01:03:03;-1.20;99.90
254;DHT22;590;48.772;8.846;2022-12-11T01:05:32;-1.30;99.90
254;DHT22;590;48.772;8.846;2022-12-11T01:08:00;-1.30;99.90
254;DHT22;590;48.772;8.846;2022-12-11T01:10:29;-1.30;99.90
254;DHT22;590;48.772;8.846;2022-12-11T01:13:01;-1.30;99.90
254;DHT22;590;48.772;8.846;2022-12-11T01:15:31;-1.30;99.90
254;DHT22;590;48.772;8.846;2022-12-11T01:18:05;-1.40;99.90
254;DHT22;590;48.772;8.846;2022-12-11T01:20:33;-1.50;99.90
254;DHT22;590;48.772;8.846;2022-12-11T01:23:01;-1.60;99.90
254;DHT22;590;48.772;8.846;2022-12-11T01:25:29;-1.70;99.90
254;DHT22;590;48.772;8.846;2022-12-11T01:28:00;-1.70;99.90
254;DHT22;590;48.772;8.846;2022-12-11T01:30:28;-1.70;99.90
254;DHT22;590;48.772;8.846;2022-12-11T01:32:56;-1.70;99.90
254;DHT22;590;48.772;8.846;2022-12-11T01:35:24;-1.60;99.90
254;DHT22;590;48.772;8.846;2022-12-11T01:37:52;-1.60;99.90
254;DHT22;590;48.772;8.846;2022-12-11T01:40:21;-1.60;99.90
254;DHT22;590;48.772;8.846;2022-12-11T01:42:49;-1.60;99.90
254;DHT22;590;48.772;8.846;2022-12-11T01:45:29;-1.70;99.90
254;DHT22;590;48.772;8.846;2022-12-11T01:48:01;-1.60;99.90
254;DHT22;590;48.772;8.846;2022-12-11T01:50:33;-1.70;99.90
254;DHT22;590;48.772;8.846;2022-12-11T01:53:03;-1.70;99.90
254;DHT22;590;48.772;8.846;2022-12-11T01:55:33;-1.60;99.90
254;DHT22;590;48.772;8.846;2022-12-11T01:58:02;-1.60;99.90
254;DHT22;590;48.772;8.846;2022-12-11T02:00:32;-1.50;99.90
254;DHT22;590;48.772;8.846;2022-12-11T02:03:00;-1.50;99.90
254;DHT22;590;48.772;8.846;2022-12-11T02:05:28;-1.40;99.90
254;DHT22;590;48.772;8.846;2022-12-11T02:07:58;-1.40;99.90
254;DHT22;590;48.772;8.846;2022-12-11T02:10:46;-1.30;99.90
254;DHT22;590;48.772;8.846;2022-12-11T02:13:20;-1.40;99.90
254;DHT22;590;48.772;8.846;2022-12-11T02:15:59;-1.30;99.90
254;DHT22;590;48.772;8.846;2022-12-11T02:18:33;-1.40;99.90
254;DHT22;590;48.772;8.846;2022-12-11T02:21:07;-1.40;99.90
254;DHT22;590;48.772;8.846;2022-12-11T02:23:58;-1.40;99.90
254;DHT22;590;48.772;8.846;2022-12-11T02:26:52;-1.40;99.90
254;DHT22;590;48.772;8.846;2022-12-11T02:29:26;-1.40;99.90
254;DHT22;590;48.772;8.846;2022-12-11T02:32:01;-1.50;99.90
254;DHT22;590;48.772;8.846;2022-12-11T02:34:33;-1.50;99.90
254;DHT22;590;48.772;8.846;2022-12-11T02:37:10;-1.50;99.90
254;DHT22;590;48.772;8.846;2022-12-11T02:39:41;-1.50;99.90
254;DHT22;590;48.772;8.846;2022-12-11T02:42:11;-1.50;99.90
254;DHT22;590;48.772;8.846;2022-12-11T02:44:43;-1.60;99.90
254;DHT22;590;48.772;8.846;2022-12-11T02:47:13;-1.70;99.90
254;DHT22;590;48.772;8.846;2022-12-11T02:49:44;-1.60;99.90
254;DHT22;590;48.772;8.846;2022-12-11T02:52:16;-1.60;99.90
254;DHT22;590;48.772;8.846;2022-12-11T02:54:46;-1.60;99.90
254;DHT22;590;48.772;8.846;2022-12-11T02:57:21;-1.60;99.90
254;DHT22;590;48.772;8.846;2022-12-11T02:59:51;-1.60;99.90
254;DHT22;590;48.772;8.846;2022-12-11T03:02:19;-1.70;99.90
254;DHT22;590;48.772;8.846;2022-12-11T03:04:47;-1.60;99.90
254;DHT22;590;48.772;8.846;2022-12-11T03:07:18;-1.70;99.90
254;DHT22;590;48.772;8.846;2022-12-11T03:09:49;-1.70;99.90
254;DHT22;590;48.772;8.846;2022-12-11T03:12:20;-1.70;99.90
254;DHT22;590;48.772;8.846;2022-12-11T03:14:50;-1.60;99.90
254;DHT22;590;48.772;8.846;2022-12-11T03:17:21;-1.60;99.90
254;DHT22;590;48.772;8.846;2022-12-11T03:19:54;-1.60;99.90
254;DHT22;590;48.772;8.846;2022-12-11T03:22:32;-1.60;99.90
254;DHT22;590;48.772;8.846;2022-12-11T03:25:08;-1.60;99.90
254;DHT22;590;48.772;8.846;2022-12-11T03:27:43;-1.60;99.90
254;DHT22;590;48.772;8.846;2022-12-11T03:30:16;-1.60;99.90
254;DHT22;590;48.772;8.846;2022-12-11T03:32:48;-1.50;99.90
254;DHT22;590;48.772;8.846;2022-12-11T03:35:20;-1.50;99.90
254;DHT22;590;48.772;8.846;2022-12-11T03:37:50;-1.50;99.90
254;DHT22;590;48.772;8.846;2022-12-11T03:40:20;-1.50;99.90
254;DHT22;590;48.772;8.846;2022-12-11T03:42:51;-1.50;99.90
254;DHT22;590;48.772;8.846;2022-12-11T03:45:22;-1.50;99.90
254;DHT22;590;48.772;8.846;2022-12-11T03:47:52;-1.50;99.90
254;DHT22;590;48.772;8.846;2022-12-11T03:50:22;-1.40;99.90
254;DHT22;590;48.772;8.846;2022-12-11T03:52:51;-1.40;99.90
254;DHT22;590;48.772;8.846;2022-12-11T03:55:21;-1.40;99.90
254;DHT22;590;48.772;8.846;2022-12-11T03:57:49;-1.40;99.90
254;DHT22;590;48.772;8.846;2022-12-11T04:00:20;-1.40;99.90
254;DHT22;590;48.772;8.846;2022-12-11T04:02:48;-1.40;99.90
254;DHT22;590;48.772;8.846;2022-12-11T04:05:39;-1.40;99.90
254;DHT22;590;48.772;8.846;2022-12-11T04:08:07;-1.40;99.90
254;DHT22;590;48.772;8.846;2022-12-11T04:10:35;-1.40;99.90
254;DHT22;590;48.772;8.846;2022-12-11T04:13:03;-1.40;99.90
254;DHT22;590;48.772;8.846;2022-12-11T04:15:33;-1.40;99.90
254;DHT22;590;48.772;8.846;2022-12-11T04:18:00;-1.30;99.90
254;DHT22;590;48.772;8.846;2022-12-11T04:20:45;-1.30;99.90
254;DHT22;590;48.772;8.846;2022-12-11T04:23:31;-1.30;99.90
254;DHT22;590;48.772;8.846;2022-12-11T04:26:18;-1.30;99.90
254;DHT22;590;48.772;8.846;2022-12-11T04:28:47;-1.30;99.90
254;DHT22;590;48.772;8.846;2022-12-11T04:31:19;-1.30;99.90
254;DHT22;590;48.772;8.846;2022-12-11T04:33:47;-1.40;99.90
254;DHT22;590;48.772;8.846;2022-12-11T04:36:15;-1.40;99.90
254;DHT22;590;48.772;8.846;2022-12-11T04:38:44;-1.30;99.90
254;DHT22;590;48.772;8.846;2022-12-11T04:41:14;-1.30;99.90
254;DHT22;590;48.772;8.846;2022-12-11T04:43:42;-1.30;99.90
254;DHT22;590;48.772;8.846;2022-12-11T04:46:13;-1.30;99.90
254;DHT22;590;48.772;8.846;2022-12-11T04:48:43;-1.30;99.90
254;DHT22;590;48.772;8.846;2022-12-11T04:51:12;-1.20;99.90
254;DHT22;590;48.772;8.846;2022-12-11T04:53:40;-1.20;99.90
254;DHT22;590;48.772;8.846;2022-12-11T04:56:12;-1.20;99.90
254;DHT22;590;48.772;8.846;2022-12-11T04:58:40;-1.20;99.90
254;DHT22;590;48.772;8.846;2022-12-11T05:01:10;-1.20;99.90
254;DHT22;590;48.772;8.846;2022-12-11T05:03:38;-1.20;99.90
254;DHT22;590;48.772;8.846;2022-12-11T05:06:09;-1.20;99.90
254;DHT22;590;48.772;8.846;2022-12-11T05:08:39;-1.20;99.90
254;DHT22;590;48.772;8.846;2022-12-11T05:11:09;-1.20;99.90
254;DHT22;590;48.772;8.846;2022-12-11T05:13:37;-1.10;99.90
254;DHT22;590;48.772;8.846;2022-12-11T05:16:07;-1.20;99.90
254;DHT22;590;48.772;8.846;2022-12-11T05:18:35;-1.20;99.90
254;DHT22;590;48.772;8.846;2022-12-11T05:21:05;-1.10;99.90
254;DHT22;590;48.772;8.846;2022-12-11T05:23:34;-1.10;99.90
254;DHT22;590;48.772;8.846;2022-12-11T05:26:04;-1.10;99.90
254;DHT22;590;48.772;8.846;2022-12-11T05:28:35;-1.10;99.90
254;DHT22;590;48.772;8.846;2022-12-11T05:31:05;-1.20;99.90
254;DHT22;590;48.772;8.846;2022-12-11T05:33:34;-1.20;99.90
254;DHT22;590;48.772;8.846;2022-12-11T05:36:02;-1.10;99.90
254;DHT22;590;48.772;8.846;2022-12-11T05:38:30;-1.10;99.90
254;DHT22;590;48.772;8.846;2022-12-11T05:41:01;-1.20;99.90
254;DHT22;590;48.772;8.846;2022-12-11T05:43:32;-1.20;99.90
254;DHT22;590;48.772;8.846;2022-12-11T05:46:05;-1.20;99.90
254;DHT22;590;48.772;8.846;2022-12-11T05:48:35;-1.20;99.90
254;DHT22;590;48.772;8.846;2022-12-11T05:51:03;-1.20;99.90
254;DHT22;590;48.772;8.846;2022-12-11T05:53:32;-1.30;99.90
254;DHT22;590;48.772;8.846;2022-12-11T05:56:02;-1.30;99.90
254;DHT22;590;48.772;8.846;2022-12-11T05:58:31;-1.40;99.90
254;DHT22;590;48.772;8.846;2022-12-11T06:00:59;-1.40;99.90
254;DHT22;590;48.772;8.846;2022-12-11T06:03:27;-1.40;99.90
254;DHT22;590;48.772;8.846;2022-12-11T06:05:55;-1.50;99.90
254;DHT22;590;48.772;8.846;2022-12-11T06:08:23;-1.50;99.90
254;DHT22;590;48.772;8.846;2022-12-11T06:10:52;-1.50;99.90
254;DHT22;590;48.772;8.846;2022-12-11T06:13:21;-1.60;99.90
254;DHT22;590;48.772;8.846;2022-12-11T06:15:49;-1.60;99.90
254;DHT22;590;48.772;8.846;2022-12-11T06:18:17;-1.60;99.90
254;DHT22;590;48.772;8.846;2022-12-11T06:20:45;-1.70;99.90
254;DHT22;590;48.772;8.846;2022-12-11T06:23:13;-1.80;99.90
254;DHT22;590;48.772;8.846;2022-12-11T06:25:41;-1.80;99.90
254;DHT22;590;48.772;8.846;2022-12-11T06:28:09;-1.90;99.90
254;DHT22;590;48.772;8.846;2022-12-11T06:30:39;-1.90;99.90
254;DHT22;590;48.772;8.846;2022-12-11T06:33:07;-2.00;99.90
254;DHT22;590;48.772;8.846;2022-12-11T06:35:35;-2.00;99.90
254;DHT22;590;48.772;8.846;2022-12-11T06:38:08;-2.00;99.90
254;DHT22;590;48.772;8.846;2022-12-11T06:40:36;-2.00;99.90
254;DHT22;590;48.772;8.846;2022-12-11T06:43:04;-2.10;99.90
254;DHT22;590;48.772;8.846;2022-12-11T06:45:32;-2.10;99.90
254;DHT22;590;48.772;8.846;2022-12-11T06:48:02;-2.10;99.90
254;DHT22;590;48.772;8.846;2022-12-11T06:50:30;-2.10;99.90
254;DHT22;590;48.772;8.846;2022-12-11T06:52:58;-2.20;99.90
254;DHT22;590;48.772;8.846;2022-12-11T06:55:26;-2.20;99.90
254;DHT22;590;48.772;8.846;2022-12-11T06:57:54;-2.20;99.90
254;DHT22;590;48.772;8.846;2022-12-11T07:00:22;-2.30;99.90
254;DHT22;590;48.772;8.846;2022-12-11T07:02:50;-2.20;99.90
254;DHT22;590;48.772;8.846;2022-12-11T07:05:20;-2.20;99.90
254;DHT22;590;48.772;8.846;2022-12-11T07:07:47;-2.20;99.90
254;DHT22;590;48.772;8.846;2022-12-11T07:10:16;-2.30;99.90
254;DHT22;590;48.772;8.846;2022-12-11T07:12:44;-2.40;99.90
254;DHT22;590;48.772;8.846;2022-12-11T07:15:12;-2.40;99.90
254;DHT22;590;48.772;8.846;2022-12-11T07:17:40;-2.40;99.90
254;DHT22;590;48.772;8.846;2022-12-11T07:20:09;-2.30;99.90
254;DHT22;590;48.772;8.846;2022-12-11T07:22:38;-2.30;99.90
254;DHT22;590;48.772;8.846;2022-12-11T07:25:12;-2.20;99.90
254;DHT22;590;48.772;8.846;2022-12-11T07:27:40;-2.20;99.90
254;DHT22;590;48.772;8.846;2022-12-11T07:30:09;-2.20;99.90
254;DHT22;590;48.772;8.846;2022-12-11T07:32:38;-2.20;99.90
254;DHT22;590;48.772;8.846;2022-12-11T07:35:06;-2.20;99.90
254;DHT22;590;48.772;8.846;2022-12-11T07:37:35;-2.20;99.90
254;DHT22;590;48.772;8.846;2022-12-11T07:40:06;-2.20;99.90
254;DHT22;590;48.772;8.846;2022-12-11T07:42:35;-2.10;99.90
254;DHT22;590;48.772;8.846;2022-12-11T07:45:11;-2.10;99.90
254;DHT22;590;48.772;8.846;2022-12-11T07:47:40;-2.10;99.90
254;DHT22;590;48.772;8.846;2022-12-11T07:50:08;-2.10;99.90
254;DHT22;590;48.772;8.846;2022-12-11T07:52:36;-2.10;99.90
254;DHT22;590;48.772;8.846;2022-12-11T07:55:06;-2.10;99.90
254;DHT22;590;48.772;8.846;2022-12-11T07:57:35;-2.10;99.90
254;DHT22;590;48.772;8.846;2022-12-11T08:00:04;-2.20;99.90
254;DHT22;590;48.772;8.846;2022-12-11T08:02:32;-2.20;99.90
254;DHT22;590;48.772;8.846;2022-12-11T08:05:04;-2.20;99.90
254;DHT22;590;48.772;8.846;2022-12-11T08:07:33;-2.20;99.90
254;DHT22;590;48.772;8.846;2022-12-11T08:10:02;-2.20;99.90
254;DHT22;590;48.772;8.846;2022-12-11T08:12:31;-2.10;99.90
254;DHT22;590;48.772;8.846;2022-12-11T08:14:59;-2.10;99.90
254;DHT22;590;48.772;8.846;2022-12-11T08:17:27;-2.00;99.90
254;DHT22;590;48.772;8.846;2022-12-11T08:20:02;-2.00;99.90
254;DHT22;590;48.772;8.846;2022-12-11T08:22:31;-2.00;99.90
254;DHT22;590;48.772;8.846;2022-12-11T08:24:59;-1.90;99.90
254;DHT22;590;48.772;8.846;2022-12-11T08:27:27;-2.00;99.90
254;DHT22;590;48.772;8.846;2022-12-11T08:29:56;-2.10;99.90
254;DHT22;590;48.772;8.846;2022-12-11T08:32:24;-2.20;99.90
254;DHT22;590;48.772;8.846;2022-12-11T08:34:52;-2.20;99.90
254;DHT22;590;48.772;8.846;2022-12-11T08:37:20;-2.20;99.90
254;DHT22;590;48.772;8.846;2022-12-11T08:39:48;-2.20;99.90
254;DHT22;590;48.772;8.846;2022-12-11T08:42:16;-2.20;99.90
254;DHT22;590;48.772;8.846;2022-12-11T08:44:47;-2.20;99.90
254;DHT22;590;48.772;8.846;2022-12-11T08:47:16;-2.20;99.90
254;DHT22;590;48.772;8.846;2022-12-11T08:49:44;-2.20;99.90
254;DHT22;590;48.772;8.846;2022-12-11T08:52:12;-2.10;99.90
254;DHT22;590;48.772;8.846;2022-12-11T08:54:40;-1.90;99.90
254;DHT22;590;48.772;8.846;2022-12-11T08:57:08;-1.70;99.90
254;DHT22;590;48.772;8.846;2022-12-11T08:59:36;-1.60;99.90
254;DHT22;590;48.772;8.846;2022-12-11T09:02:05;-1.70;99.90
254;DHT22;590;48.772;8.846;2022-12-11T09:04:35;-1.60;99.90
254;DHT22;590;48.772;8.846;2022-12-11T09:07:03;-1.60;99.90
254;DHT22;590;48.772;8.846;2022-12-11T09:09:31;-1.50;99.90
254;DHT22;590;48.772;8.846;2022-12-11T09:11:59;-1.50;99.90
254;DHT22;590;48.772;8.846;2022-12-11T09:14:27;-1.50;99.90
254;DHT22;590;48.772;8.846;2022-12-11T09:16:55;-1.40;99.90
254;DHT22;590;48.772;8.846;2022-12-11T09:19:23;-1.50;99.90
254;DHT22;590;48.772;8.846;2022-12-11T09:21:59;-1.50;99.90
254;DHT22;590;48.772;8.846;2022-12-11T09:24:27;-1.50;99.90
254;DHT22;590;48.772;8.846;2022-12-11T09:26:55;-1.40;99.90
254;DHT22;590;48.772;8.846;2022-12-11T09:29:23;-1.30;99.90
254;DHT22;590;48.772;8.846;2022-12-11T09:31:51;-1.30;99.90
254;DHT22;590;48.772;8.846;2022-12-11T09:34:20;-1.20;99.90
254;DHT22;590;48.772;8.846;2022-12-11T09:36:55;-1.10;99.90
254;DHT22;590;48.772;8.846;2022-12-11T09:39:24;-1.00;99.90
254;DHT22;590;48.772;8.846;2022-12-11T09:41:56;-1.00;99.90
254;DHT22;590;48.772;8.846;2022-12-11T09:44:33;-0.90;99.90
254;DHT22;590;48.772;8.846;2022-12-11T09:47:20;-0.90;99.90
254;DHT22;590;48.772;8.846;2022-12-11T09:49:52;-0.80;99.90
254;DHT22;590;48.772;8.846;2022-12-11T09:52:31;-0.70;99.90
254;DHT22;590;48.772;8.846;2022-12-11T09:55:10;-0.60;99.90
254;DHT22;590;48.772;8.846;2022-12-11T09:57:47;-0.60;99.90
254;DHT22;590;48.772;8.846;2022-12-11T10:00:22;-0.50;99.90
254;DHT22;590;48.772;8.846;2022-12-11T10:05:56;-0.20;99.90
254;DHT22;590;48.772;8.846;2022-12-11T10:08:37;-0.20;99.90
254;DHT22;590;48.772;8.846;2022-12-11T10:11:28;-0.10;99.90
254;DHT22;590;48.772;8.846;2022-12-11T10:14:05;-0.10;99.90
254;DHT22;590;48.772;8.846;2022-12-11T10:16:40;-0.10;99.70
254;DHT22;590;48.772;8.846;2022-12-11T10:19:16;0.00;99.90
254;DHT22;590;48.772;8.846;2022-12-11T10:21:45;0.00;99.50
254;DHT22;590;48.772;8.846;2022-12-11T10:24:19;0.10;99.50
254;DHT22;590;48.772;8.846;2022-12-11T10:27:14;0.10;98.70
254;DHT22;590;48.772;8.846;2022-12-11T11:27:44;18.80;65.10
254;DHT22;590;48.772;8.846;2022-12-11T11:30:18;18.80;66.50
254;DHT22;590;48.772;8.846;2022-12-11T11:32:48;19.00;66.50
254;DHT22;590;48.772;8.846;2022-12-11T11:35:19;19.10;62.80
254;DHT22;590;48.772;8.846;2022-12-11T11:37:56;19.20;61.60
254;DHT22;590;48.772;8.846;2022-12-11T11:40:28;19.40;61.60
254;DHT22;590;48.772;8.846;2022-12-11T11:43:12;19.50;61.40
254;DHT22;590;48.772;8.846;2022-12-11T11:45:45;19.60;61.00
254;DHT22;590;48.772;8.846;2022-12-11T11:48:29;19.70;60.60
254;DHT22;590;48.772;8.846;2022-12-11T11:50:57;19.80;59.40
254;DHT22;590;48.772;8.846;2022-12-11T11:53:29;19.90;58.10
254;DHT22;590;48.772;8.846;2022-12-11T11:56:04;20.00;56.80
254;DHT22;590;48.772;8.846;2022-12-11T11:58:39;20.10;55.90
254;DHT22;590;48.772;8.846;2022-12-11T12:01:13;20.10;54.80
254;DHT22;590;48.772;8.846;2022-12-11T12:03:41;20.10;54.70
254;DHT22;590;48.772;8.846;2022-12-11T12:06:13;20.20;54.10
254;DHT22;590;48.772;8.846;2022-12-11T12:08:47;20.30;53.40
254;DHT22;590;48.772;8.846;2022-12-11T12:11:25;20.30;52.30
254;DHT22;590;48.772;8.846;2022-12-11T12:14:03;20.40;51.00
254;DHT22;590;48.772;8.846;2022-12-11T12:17:04;20.40;49.20
254;DHT22;590;48.772;8.846;2022-12-11T12:19:44;20.40;47.90
254;DHT22;590;48.772;8.846;2022-12-11T12:22:26;20.40;47.00
254;DHT22;590;48.772;8.846;2022-12-11T12:25:02;20.50;46.60
254;DHT22;590;48.772;8.846;2022-12-11T12:27:40;20.50;46.50
254;DHT22;590;48.772;8.846;2022-12-11T12:30:20;20.50;46.10
254;DHT22;590;48.772;8.846;2022-12-11T12:33:00;20.50;43.60
254;DHT22;590;48.772;8.846;2022-12-11T12:35:34;20.50;42.60
254;DHT22;590;48.772;8.846;2022-12-11T12:38:07;20.20;14.10
254;DHT22;590;48.772;8.846;2022-12-11T12:40:44;19.80;1.20
254;DHT22;590;48.772;8.846;2022-12-11T12:43:46;19.10;2.30
254;DHT22;590;48.772;8.846;2022-12-11T12:46:29;18.70;3.20
254;DHT22;590;48.772;8.846;2022-12-11T12:49:00;18.70;4.40
254;DHT22;590;48.772;8.846;2022-12-11T12:51:29;18.70;5.80
254;DHT22;590;48.772;8.846;2022-12-11T12:54:00;18.90;7.30
254;DHT22;590;48.772;8.846;2022-12-11T12:56:37;19.00;8.60
254;DHT22;590;48.772;8.846;2022-12-11T12:59:18;19.20;9.40
254;DHT22;590;48.772;8.846;2022-12-11T13:01:49;19.30;10.10
254;DHT22;590;48.772;8.846;2022-12-11T13:04:38;19.40;9.80
254;DHT22;590;48.772;8.846;2022-12-11T13:07:25;19.50;10.30
254;DHT22;590;48.772;8.846;2022-12-11T13:10:02;19.60;10.90
254;DHT22;590;48.772;8.846;2022-12-11T13:12:42;19.80;12.00
254;DHT22;590;48.772;8.846;2022-12-11T13:15:32;19.80;12.70
254;DHT22;590;48.772;8.846;2022-12-11T13:18:05;19.90;13.20
254;DHT22;590;48.772;8.846;2022-12-11T13:20:52;20.00;13.60
254;DHT22;590;48.772;8.846;2022-12-11T13:23:27;20.00;13.80
254;DHT22;590;48.772;8.846;2022-12-11T13:25:58;20.10;14.10
254;DHT22;590;48.772;8.846;2022-12-11T13:28:29;20.10;14.30
254;DHT22;590;48.772;8.846;2022-12-11T13:33:46;20.20;14.70
254;DHT22;590;48.772;8.846;2022-12-11T13:36:32;20.20;14.80
254;DHT22;590;48.772;8.846;2022-12-11T13:39:04;20.20;14.90
254;DHT22;590;48.772;8.846;2022-12-11T13:41:34;20.20;15.00
254;DHT22;590;48.772;8.846;2022-12-11T13:44:04;20.20;15.00
254;DHT22;590;48.772;8.846;2022-12-11T13:46:34;20.30;15.10
254;DHT22;590;48.772;8.846;2022-12-11T13:49:06;20.30;15.30
254;DHT22;590;48.772;8.846;2022-12-11T13:51:51;20.30;15.30
254;DHT22;590;48.772;8.846;2022-12-11T13:54:19;20.30;15.30
254;DHT22;590;48.772;8.846;2022-12-11T13:56:55;20.30;15.30
254;DHT22;590;48.772;8.846;2022-12-11T13:59:26;20.30;15.30
254;DHT22;590;48.772;8.846;2022-12-11T14:01:59;20.30;15.30
254;DHT22;590;48.772;8.846;2022-12-11T14:04:29;20.30;15.30
254;DHT22;590;48.772;8.846;2022-12-11T14:06:58;20.30;15.30
254;DHT22;590;48.772;8.846;2022-12-11T14:09:28;20.30;15.30
254;DHT22;590;48.772;8.846;2022-12-11T14:11:56;20.20;14.10
254;DHT22;590;48.772;8.846;2022-12-11T14:14:33;20.20;14.60
254;DHT22;590;48.772;8.846;2022-12-11T14:17:05;20.30;14.30
254;DHT22;590;48.772;8.846;2022-12-11T14:19:35;20.30;14.20
254;DHT22;590;48.772;8.846;2022-12-11T14:22:04;20.30;14.40
254;DHT22;590;48.772;8.846;2022-12-11T14:24:33;20.30;14.70
254;DHT22;590;48.772;8.846;2022-12-11T14:27:01;20.30;15.10
254;DHT22;590;48.772;8.846;2022-12-11T14:29:32;20.30;14.00
254;DHT22;590;48.772;8.846;2022-12-11T14:32:02;20.20;13.90
254;DHT22;590;48.772;8.846;2022-12-11T14:34:36;20.20;14.00
254;DHT22;590;48.772;8.846;2022-12-11T14:37:06;20.20;14.20
254;DHT22;590;48.772;8.846;2022-12-11T14:39:37;20.20;14.50
254;DHT22;590;48.772;8.846;2022-12-11T14:42:12;20.20;14.70
254;DHT22;590;48.772;8.846;2022-12-11T14:44:46;20.20;14.80
254;DHT22;590;48.772;8.846;2022-12-11T14:47:18;20.20;14.80
254;DHT22;590;48.772;8.846;2022-12-11T14:49:53;20.20;14.80
254;DHT22;590;48.772;8.846;2022-12-11T14:52:28;20.20;15.00
254;DHT22;590;48.772;8.846;2022-12-11T14:55:01;20.20;15.20
254;DHT22;590;48.772;8.846;2022-12-11T14:57:32;20.30;16.20
254;DHT22;590;48.772;8.846;2022-12-11T15:00:02;20.30;16.10
254;DHT22;590;48.772;8.846;2022-12-11T15:02:32;20.30;16.50
254;DHT22;590;48.772;8.846;2022-12-11T15:05:18;20.40;17.60
254;DHT22;590;48.772;8.846;2022-12-11T15:07:54;20.40;17.40
254;DHT22;590;48.772;8.846;2022-12-11T15:12:47;19.80;1.00
254;DHT22;590;48.772;8.846;2022-12-11T15:15:16;18.80;1.90
254;DHT22;590;48.772;8.846;2022-12-11T15:18:11;18.60;1.40
254;DHT22;590;48.772;8.846;2022-12-11T15:21:51;18.30;1.00
254;DHT22;590;48.772;8.846;2022-12-11T15:24:23;18.10;1.00
254;DHT22;590;48.772;8.846;2022-12-11T15:26:56;17.90;1.00
254;DHT22;590;48.772;8.846;2022-12-11T15:29:32;17.70;1.00
254;DHT22;590;48.772;8.846;2022-12-11T15:32:03;17.50;1.00
254;DHT22;590;48.772;8.846;2022-12-11T15:34:46;17.40;1.00
254;DHT22;590;48.772;8.846;2022-12-11T15:37:20;17.30;1.00
254;DHT22;590;48.772;8.846;2022-12-11T15:39:48;17.20;1.00
254;DHT22;590;48.772;8.846;2022-12-11T15:42:22;17.20;1.00
254;DHT22;590;48.772;8.846;2022-12-11T15:44:52;17.10;1.20
254;DHT22;590;48.772;8.846;2022-12-11T15:47:23;17.10;1.20
254;DHT22;590;48.772;8.846;2022-12-11T15:49:54;17.00;1.10
254;DHT22;590;48.772;8.846;2022-12-11T15:52:22;17.00;1.10
254;DHT22;590;48.772;8.846;2022-12-11T15:54:51;17.00;1.20
254;DHT22;590;48.772;8.846;2022-12-11T15:57:20;17.00;1.10
254;DHT22;590;48.772;8.846;2022-12-11T15:59:51;17.00;1.10
254;DHT22;590;48.772;8.846;2022-12-11T16:02:20;16.90;1.10
254;DHT22;590;48.772;8.846;2022-12-11T16:04:50;16.90;1.10
254;DHT22;590;48.772;8.846;2022-12-11T16:07:20;16.90;1.10
254;DHT22;590;48.772;8.846;2022-12-11T16:09:52;16.90;1.10
254;DHT22;590;48.772;8.846;2022-12-11T16:12:24;16.90;1.10
254;DHT22;590;48.772;8.846;2022-12-11T16:14:54;16.90;1.10
254;DHT22;590;48.772;8.846;2022-12-11T16:17:22;16.90;1.10
254;DHT22;590;48.772;8.846;2022-12-11T16:19:52;16.90;1.10
254;DHT22;590;48.772;8.846;2022-12-11T16:22:20;16.90;1.10
254;DHT22;590;48.772;8.846;2022-12-11T16:24:52;16.90;1.10
254;DHT22;590;48.772;8.846;2022-12-11T16:27:21;16.90;1.10
254;DHT22;590;48.772;8.846;2022-12-11T16:29:49;16.90;1.10
254;DHT22;590;48.772;8.846;2022-12-11T16:32:20;16.90;1.10
254;DHT22;590;48.772;8.846;2022-12-11T16:34:48;16.90;1.10
254;DHT22;590;48.772;8.846;2022-12-11T16:37:18;16.90;1.10
254;DHT22;590;48.772;8.846;2022-12-11T16:39:46;16.90;1.10
254;DHT22;590;48.772;8.846;2022-12-11T16:42:14;16.90;1.10
254;DHT22;590;48.772;8.846;2022-12-11T16:44:42;16.90;1.10
254;DHT22;590;48.772;8.846;2022-12-11T16:47:10;16.90;1.10
254;DHT22;590;48.772;8.846;2022-12-11T16:49:39;16.90;1.10
254;DHT22;590;48.772;8.846;2022-12-11T16:52:08;16.90;1.10
254;DHT22;590;48.772;8.846;2022-12-11T16:54:37;16.90;1.10
254;DHT22;590;48.772;8.846;2022-12-11T16:57:05;16.90;1.00
254;DHT22;590;48.772;8.846;2022-12-11T16:59:33;16.90;1.00
254;DHT22;590;48.772;8.846;2022-12-11T17:02:03;16.90;1.00
254;DHT22;590;48.772;8.846;2022-12-11T17:04:32;16.90;1.00
254;DHT22;590;48.772;8.846;2022-12-11T17:07:01;16.90;1.00
254;DHT22;590;48.772;8.846;2022-12-11T17:09:29;16.90;1.00
254;DHT22;590;48.772;8.846;2022-12-11T17:11:57;16.90;1.00
254;DHT22;590;48.772;8.846;2022-12-11T17:14:26;16.90;1.00
254;DHT22;590;48.772;8.846;2022-12-11T17:16:54;16.90;1.00
254;DHT22;590;48.772;8.846;2022-12-11T17:19:22;16.90;1.00
254;DHT22;590;48.772;8.846;2022-12-11T17:21:50;16.90;1.00
254;DHT22;590;48.772;8.846;2022-12-11T17:24:21;16.90;1.00
254;DHT22;590;48.772;8.846;2022-12-11T17:26:49;16.90;1.00
254;DHT22;590;48.772;8.846;2022-12-11T17:29:17;16.90;1.00
254;DHT22;590;48.772;8.846;2022-12-11T17:31:45;16.90;1.00
254;DHT22;590;48.772;8.846;2022-12-11T17:34:14;16.90;1.00
254;DHT22;590;48.772;8.846;2022-12-11T17:36:42;16.90;1.00
254;DHT22;590;48.772;8.846;2022-12-11T17:39:12;16.90;1.00
254;DHT22;590;48.772;8.846;2022-12-11T17:41:41;16.90;1.00
254;DHT22;590;48.772;8.846;2022-12-11T17:44:09;16.90;1.00
254;DHT22;590;48.772;8.846;2022-12-11T17:46:37;16.90;1.00
254;DHT22;590;48.772;8.846;2022-12-11T17:49:05;16.90;1.00
254;DHT22;590;48.772;8.846;2022-12-11T17:51:33;16.90;1.00
254;DHT22;590;48.772;8.846;2022-12-11T17:54:02;16.90;1.00
254;DHT22;590;48.772;8.846;2022-12-11T17:56:30;16.90;1.00
254;DHT22;590;48.772;8.846;2022-12-11T17:59:01;16.90;1.00
254;DHT22;590;48.772;8.846;2022-12-11T18:01:30;16.90;1.30
254;DHT22;590;48.772;8.846;2022-12-11T18:03:58;16.90;1.00
254;DHT22;590;48.772;8.846;2022-12-11T18:06:28;16.90;1.00
254;DHT22;590;48.772;8.846;2022-12-11T18:08:57;16.90;1.00
254;DHT22;590;48.772;8.846;2022-12-11T18:11:24;16.90;1.00
254;DHT22;590;48.772;8.846;2022-12-11T18:13:53;16.90;1.00